AREA preflight bulletin
Updated "live" 19 Jan 2018, 09:04

back to the map




METAR og TAF


NARSARSUAQ
  AKTUEL BGBW 190850Z VRB01KT 9999 FEW140 SCT180 M12/M21 Q1003 RMK 1AC 3CC =
  TAF 9 timer BGBW 190851Z 1909/1918 07005KT 9999 BKN120 BECMG 1911/1914 06015KT TEMPO 1914/1918 06015G25KT=

QAQORTOQ
  AKTUEL BGJH 190850Z AUTO 33002KT //// ///////// M09/M16 Q1002=

PAAMIUT
  AKTUEL BGPT 190850Z 04003KT 9999 FEW084 SCT120 BKN150 M09/M15 Q1004 RMK 2AC 4AC 6AS =
  TAF 9 timer BGPT 190851Z 1909/1918 02005KT 9999 SCT080 BKN120=

NARSAQ
  AKTUEL BGNS 190850Z AUTO 04004KT //// ///////// M10/M16 Q1002=

NANORTALIK
  AKTUEL BGNN 260920Z AUTO 20009KT //// ///////// M07/M13 Q1000=

NUUK
  AKTUEL BGGH 190850Z AUTO 10004KT 9999NDV FEW200/// M17/M20 Q1005=
  TAF 9 timer BGGH 182035Z 1821/1901 09006KT 9999 FEW010=

KANGERLUSSUAQ
  AKTUEL BGSF 190850Z AUTO 05007KT 9999NDV NCD M30/M34 Q1010=
  TAF 24 timer BGSF 190457Z 1906/2012 06010KT 9999 FEW200=


SIGMETS:

Ingen SIGMET fundet:

SNOWTAM:

ICAO
BGPT (PAAMIUT)

valid from:
1801190850

Notam_id:
0102

SNOWTAM 0102 A)BGPT B)01190850 C)17 F)8/8/8 G)1/1/1 H)5/5/5 N)NIL/GOOD R)8/GOOD T)RWY CONTAMINATION 10 PERCENT 1MM COMPACTED SNOW - TWY CLEAR AND DRY APRON 25 PERCENT 1MM COMPACTED SNOW - MEASURED FRICTION COEFFICIENTS RWY 17 69/72/69 TAP


ICAO
BGGH (NUUK)

valid from:
1801182232

Notam_id:
0355

SNOWTAM 0355 A)BGGH B)01182232 C)05 F)38/38/38 G)2/2/2 H)4/4/3 N)38/GOOD R)8/POOR T)RWY CONTAMINATION 100 PERCENT 1MM RIME AND 10 PERCENT 1MM COMPACTED SNOW - MEASURED FRICTION COEFFICIENTS 39/39/33 SKH



NOTAM/SNOWTAM for operationel use has to be confirmed with the
nearest AIS Briefing Office prior to a flight.

ICAO
BGBW (NARSARSUAQ)

FIR
BGGL

Notam_id:
BGA0594/17

valid from:
1712301629

E) REF AD-2 RNAV (GNSS) Y RWY 06-1 DUE TO TERRAIN WARNING REPORTS ON FINAL, LNAV OCA(H) INCREASED. CAT A INCREASED TO 1800(1688) FT FOR ALL CLIMB GRADIENTS. CAT B INCREASED TO 1800(1688) FT FOR ALL CLIMB GRADIENTS. CAT C INCREASED TO 1800(1688) FT FOR ALL CLIMB GRADIENTS.

valid to:
1801311900EST


Replacing:
BGA0529/17

ICAO
BGBW (NARSARSUAQ)

FIR
BGGL

Notam_id:
BGA0595/17

valid from:
1712301630

E) REF AD-2 RNAV (GNSS) Z RWY 06-1 DUE TO TERRAIN WARNING REPORTS ON FINAL, LNAV OCA(H) INCREASED. CAT A INCREASED TO 1800(1688) FT FOR ALL CLIMB GRADIENTS. CAT B INCREASED TO 1800(1688) FT FOR ALL CLIMB GRADIENTS.

valid to:
1801311900EST


Replacing:
BGA0530/17

ICAO
BGJH (QAQORTOQ)

FIR
BGGL

Notam_id:
BGC0055/17

valid from:
1711081913

E) REF. AIP GNLD AIRAC AMDT 11/17 VALID 09 NOV 17 DISREGARD EXISTING REMARKS 1 TO 4 UNDER ITEM 2, SUB-ITEM 7. NEW REMARKS TO FOLLOW IN NEW NOTAM

valid to:
PERM




ICAO
BGJH (QAQORTOQ)

FIR
BGGL

Notam_id:
BGC0056/17

valid from:
1711081919

E) DUE TO REDUCED APPROACH AND DEPARTURE SECTOR MAXIMUM HELICOPTER LENGTH TO OPERATE AT QAQOR-TOQ, MAIN ROTOR INCLUDED, NOT TO EXCEED 20 METERS. HELISTOP ONLY CERTIFIED TO OPERATE HELICOPTERS WITH MTOW OF UP TO 1O TONNES AND WHICH ARE CERTIFIED TO CARRY UP TO A MAXIMUM OF 19 PASSENGERS. TAKE OFF AND LANDING MUST ONLY TAKE PLACE WHEN WIND VELOCITY DOES NOT EXCEED 35KT. REF. AIP GREENLAND AD 4-BGJH-1 PKT. 2 PKT. 7

valid to:
PERM




ICAO
BGNN (NANORTALIK)

FIR
BGGL

Notam_id:
BGC0004/18

valid from:
1801161607

E) OPMET SHOWS WIND DIRECTION AND STRENGHT WRONG

valid to:
1801311500EST




ICAO
BGGL (SONDRESTROM FIR)

FIR
BGGL

Notam_id:
BGA0014/18

valid from:
1803010000

E) TRIGGER NOTAM - PERM AIP AIRAC AMDT 02/18 WEF 01 MAR 2018. SONDRESTROM FIR RENAMED NUUK FIR

valid to:
1803142359




ICAO
BGGL (SONDRESTROM FIR)

FIR
BGGL

Notam_id:
BGA0571/17

valid from:
1802010000

E) TRIGGER NOTAM - PERM AIP AIRAC AMDT 01/18 WEF 01 FEB 2018. NEW SIGNIFICANT POINT GIGOM ADDED. REF GEN 3.5: CHANGES IN CHAPTER 3 (METEOROLOGICAL OBSERVATIONS AND REPORTS) AT BGUK.

valid to:
1802142359




ICAO
BGGL (SONDRESTROM FIR)

FIR
BGGL

Notam_id:
BGA0002/18

valid from:
1801010559

E) CHECKLIST YEAR=2017 0269 0495 0539 0548 0571 0593 0594 0595 YEAR=2018 0001 LATEST PUBLICATIONS AIP AIRAC AMDT IFR 001/2018 EFFECTIVE DATE 01 FEB 18 AIP AMDT IFR 012/2017 EFFECTIVE DATE 21 DEC 17 AIP SUP IFR 004/2017 EFFECTIVE DATE 10 OCT 17 AIC IFR A002/2017 EFFECTIVE DATE 31 AUG 17

valid to:
1802010559EST


Replacing:
BGA0554/17

ICAO
BGGL (SONDRESTROM FIR)

FIR
BGGL

Notam_id:
BGB0001/18

valid from:
1801010559

E) CHECKLIST YEAR=2017 0740 0775 0806 0870 0891 0901 0902 0913 0914 0915 0918 0920 0921 0922 0923 0924 0930 0944 0945 0946 0959 0960 0965 YEAR=2018 NIL LATEST PUBLICATIONS AIP AIRAC AMDT IFR 001/2018 EFFECTIVE DATE 01 FEB 18 AIP AMDT IFR 012/2017 EFFECTIVE DATE 21 DEC 17 AIP SUP IFR 004/2017 EFFECTIVE DATE 10 OCT 17 AIC IFR A002/2017 EFFECTIVE DATE 31 AUG 17

valid to:
1802010559EST


Replacing:
BGB0884/17

ICAO
BGGL (SONDRESTROM FIR)

FIR
BGGL

Notam_id:
BGC0001/18

valid from:
1801010559

E) CHECKLIST YEAR=2017 0055 0056 0061 0062 0063 0064 0065 0066 0067 0068 0069 0070 0071 0072 0073 0074 0075 0076 0077 0078 0082 0084 YEAR=2018 NIL LATEST PUBLICATIONS AIP AIRAC AMDT IFR 001/2018 EFFECTIVE DATE 01 FEB 18 AIP AMDT IFR 012/2017 EFFECTIVE DATE 21 DEC 17 AIP SUP IFR 004/2017 EFFECTIVE DATE 10 OCT 17 AIC IFR A002/2017 EFFECTIVE DATE 31 AUG 17

valid to:
1802010559EST


Replacing:
BGC0059/17

ICAO
BGGH (NUUK)

FIR
BGGL

Notam_id:
BGB0930/17

valid from:
1712181907

E) ERROR IN CHART FOR RNAV (GNSS) APPROACH RWY 23. WITH REF AIP GREENLAND AD 2-BGGH RNAV (GNSS) RWY 23-1. NEW OCA(H) LNAV/VNAV CLIMB 2.5 PERCENT CAT A TO READ 1310 (1029) INSTEAD OF 1230. NEW OCA(H) LNAV/VNAV CLIMB 2.5 PERCENT CAT B TO READ 1340 (1059) INSTEAD OF 1250. NEW OCA(H) LNAV/VNAV CLIMB 5.0 PERCENT CAT A TO READ 1300 (1019) INSTEAD OF 1070. NEW OCA(H) LNAV/VNAV CLIMB 5.0 PERCENT CAT B TO READ 1320 (1039) INSTEAD OF 1110. NEW OCA(H) LNAV CLIMB 5.0 PERCENT CAT A TO READ 1150 (869) IN-STEAD OF 1130. NEW OCA(H) LNAV CLIMB 5.0 PERCENT CAT B TO READ 1240 (959) INSTEAD OF 1230.

valid to:
PERM




ICAO
BGGH (NUUK)

FIR
BGGL

Notam_id:
BGB0806/17

valid from:
1712070000

E) ERROR IN CODING TABLE FOR RNAV (GNSS) APPROACH RWY 23. WITH REF AIP GREENLAND AD 2 ? BGGH RNAV (GNSS) RWY 23 - 2, EFFECTIVE DATE 07 DEC 17. CORRECT THE PATH DESCRIPTOR FOR SERIAL NUMBER 060 TO READ TF INSTEAD OF DF.

valid to:
PERM




ICAO
BGGH (NUUK)

FIR
BGGL

Notam_id:
BGB0914/17

valid from:
1802010000

E) TRIGGER NOTAM - PERM AIP AIRAC AMDT 01/18 WEF 01 FEB 2018. CORRECTION ON CODING TABLE TO RNAV (GNSS) RWY 23.

valid to:
1802142359




ICAO
BGGH (NUUK)

FIR
BGGL

Notam_id:
BGB0946/17

valid from:
1712281052

E) BGGH AFIS FREQ 119,100 MHZ NO COVERAGE IN SEKTOR BETWEEN 060 DEG MAG AND 210 DEG MAG BELOW FL100.

valid to:
1803311500


Replacing:
BGB0814/17

ICAO
BGSF (KANGERLUSSUAQ)

FIR
BGGL

Notam_id:
BGA0016/18

valid from:
1801121113

E) PAPI LIGHTS ARE SET ON 10 PERCENT INTENSITY. 20 MINUTES PRIOR NOTICE REQUIRED TO CHANGE SETTING.

valid to:
1803112359




ICAO
BGSF (KANGERLUSSUAQ)

FIR
BGGL

Notam_id:
BGA0017/18

valid from:
1801121115

E) APCH LIGHTS ARE SET ON 10 PERCENT INTENSITY. 20 MINUTES PRIOR NOTICE REQUIRED TO CHANGE SETTING.

valid to:
1803112359




ICAO
BGSF (KANGERLUSSUAQ)

FIR
BGGL

Notam_id:
BGA0018/18

valid from:
1801121116

E) RWY EDGE LIGHTS ARE SET ON 10 PERCENT INTENSITY. 20 MINUTES PRIOR NOTICE REQUIRED TO CHANGE SETTING.

valid to:
1803112359




ICAO
BGSF (KANGERLUSSUAQ)

FIR
BGGL

Notam_id:
BGA0015/18

valid from:
1803010000

E) TRIGGER NOTAM - PERM AIP AIRAC AMDT 02/18 WEF 01 MAR 2018. CHANGES AS A CONSEQUENCE OF RENAMING SONDRESTROM FIR TO NUUK FIR. NEW REMARK CONCERNING TWY D

valid to:
1803142359




ICAO
BGSF (KANGERLUSSUAQ)

FIR
BGGL

Notam_id:
BGA0539/17

valid from:
1711211100

E) TWY D CLSD BTW SUNSET AND SUNRISE. IN SPECIAL CASES MARSHALLING CAN BE REQ.

valid to:
PERM





Copyright Naviair   2003-2016